sensor_id;sensor_type;location;lat;lon;timestamp;P1;durP1;ratioP1;P2;durP2;ratioP2
37349;SDS011;23231;52.358;4.926;2023-08-12T00:03:35;8.60;;;4.93;;
37349;SDS011;23231;52.358;4.926;2023-08-12T00:08:36;11.27;;;5.00;;
37349;SDS011;23231;52.358;4.926;2023-08-12T00:13:36;13.27;;;6.20;;
37349;SDS011;23231;52.358;4.926;2023-08-12T00:18:36;11.60;;;5.75;;
37349;SDS011;23231;52.358;4.926;2023-08-12T00:23:37;13.15;;;6.75;;
37349;SDS011;23231;52.358;4.926;2023-08-12T00:28:40;11.32;;;6.07;;
37349;SDS011;23231;52.358;4.926;2023-08-12T00:33:40;12.55;;;6.50;;
37349;SDS011;23231;52.358;4.926;2023-08-12T00:38:41;11.68;;;5.75;;
37349;SDS011;23231;52.358;4.926;2023-08-12T00:43:41;15.38;;;5.97;;
37349;SDS011;23231;52.358;4.926;2023-08-12T00:48:42;12.63;;;5.95;;
37349;SDS011;23231;52.358;4.926;2023-08-12T00:53:42;10.75;;;6.15;;
37349;SDS011;23231;52.358;4.926;2023-08-12T00:58:43;17.48;;;6.28;;
37349;SDS011;23231;52.358;4.926;2023-08-12T01:03:43;11.25;;;7.00;;
37349;SDS011;23231;52.358;4.926;2023-08-12T01:08:44;12.23;;;6.15;;
37349;SDS011;23231;52.358;4.926;2023-08-12T01:13:58;15.88;;;6.80;;
37349;SDS011;23231;52.358;4.926;2023-08-12T01:19:01;13.32;;;7.43;;
37349;SDS011;23231;52.358;4.926;2023-08-12T01:24:02;17.70;;;6.45;;
37349;SDS011;23231;52.358;4.926;2023-08-12T01:29:03;13.57;;;6.85;;
37349;SDS011;23231;52.358;4.926;2023-08-12T01:34:20;17.83;;;8.50;;
37349;SDS011;23231;52.358;4.926;2023-08-12T01:39:25;18.38;;;8.88;;
37349;SDS011;23231;52.358;4.926;2023-08-12T01:44:26;16.35;;;8.68;;
37349;SDS011;23231;52.358;4.926;2023-08-12T01:49:26;20.27;;;9.00;;
37349;SDS011;23231;52.358;4.926;2023-08-12T01:54:27;18.83;;;9.23;;
37349;SDS011;23231;52.358;4.926;2023-08-12T01:59:33;19.77;;;9.65;;
37349;SDS011;23231;52.358;4.926;2023-08-12T02:04:34;16.30;;;9.80;;
37349;SDS011;23231;52.358;4.926;2023-08-12T02:09:36;16.17;;;8.60;;
37349;SDS011;23231;52.358;4.926;2023-08-12T02:14:37;20.92;;;10.00;;
37349;SDS011;23231;52.358;4.926;2023-08-12T02:19:37;21.60;;;11.57;;
37349;SDS011;23231;52.358;4.926;2023-08-12T02:24:37;22.15;;;10.65;;
37349;SDS011;23231;52.358;4.926;2023-08-12T02:29:38;23.48;;;10.82;;
37349;SDS011;23231;52.358;4.926;2023-08-12T02:34:38;20.17;;;11.30;;
37349;SDS011;23231;52.358;4.926;2023-08-12T02:39:39;21.05;;;10.32;;
37349;SDS011;23231;52.358;4.926;2023-08-12T02:44:39;28.02;;;13.32;;
37349;SDS011;23231;52.358;4.926;2023-08-12T02:49:40;22.30;;;11.00;;
37349;SDS011;23231;52.358;4.926;2023-08-12T02:54:40;22.30;;;12.10;;
37349;SDS011;23231;52.358;4.926;2023-08-12T02:59:40;23.65;;;11.13;;
37349;SDS011;23231;52.358;4.926;2023-08-12T03:04:41;23.70;;;12.05;;
37349;SDS011;23231;52.358;4.926;2023-08-12T03:09:41;27.80;;;12.90;;
37349;SDS011;23231;52.358;4.926;2023-08-12T03:14:42;21.05;;;11.15;;
37349;SDS011;23231;52.358;4.926;2023-08-12T03:19:43;26.77;;;13.63;;
37349;SDS011;23231;52.358;4.926;2023-08-12T03:24:43;21.15;;;12.60;;
37349;SDS011;23231;52.358;4.926;2023-08-12T03:29:43;26.00;;;13.30;;
37349;SDS011;23231;52.358;4.926;2023-08-12T03:34:44;27.38;;;13.82;;
37349;SDS011;23231;52.358;4.926;2023-08-12T03:39:44;27.20;;;14.10;;
37349;SDS011;23231;52.358;4.926;2023-08-12T03:44:45;25.20;;;13.95;;
37349;SDS011;23231;52.358;4.926;2023-08-12T03:49:45;27.90;;;15.07;;
37349;SDS011;23231;52.358;4.926;2023-08-12T03:54:46;24.63;;;13.20;;
37349;SDS011;23231;52.358;4.926;2023-08-12T03:59:46;24.63;;;14.63;;
37349;SDS011;23231;52.358;4.926;2023-08-12T04:04:46;30.92;;;17.17;;
37349;SDS011;23231;52.358;4.926;2023-08-12T04:09:47;27.88;;;14.98;;
37349;SDS011;23231;52.358;4.926;2023-08-12T04:14:47;32.20;;;16.50;;
37349;SDS011;23231;52.358;4.926;2023-08-12T04:19:48;28.52;;;15.80;;
37349;SDS011;23231;52.358;4.926;2023-08-12T04:24:49;25.13;;;13.88;;
37349;SDS011;23231;52.358;4.926;2023-08-12T04:29:49;34.60;;;15.52;;
37349;SDS011;23231;52.358;4.926;2023-08-12T04:34:50;28.98;;;16.30;;
37349;SDS011;23231;52.358;4.926;2023-08-12T04:39:50;26.25;;;15.50;;
37349;SDS011;23231;52.358;4.926;2023-08-12T04:44:51;25.40;;;13.90;;
37349;SDS011;23231;52.358;4.926;2023-08-12T04:49:51;23.63;;;13.68;;
37349;SDS011;23231;52.358;4.926;2023-08-12T04:54:55;25.88;;;15.13;;
37349;SDS011;23231;52.358;4.926;2023-08-12T04:59:55;26.17;;;14.65;;
37349;SDS011;23231;52.358;4.926;2023-08-12T05:04:56;21.85;;;14.30;;
37349;SDS011;23231;52.358;4.926;2023-08-12T05:09:57;25.55;;;15.63;;
37349;SDS011;23231;52.358;4.926;2023-08-12T05:14:57;26.50;;;16.27;;
37349;SDS011;23231;52.358;4.926;2023-08-12T05:19:58;30.27;;;16.13;;
37349;SDS011;23231;52.358;4.926;2023-08-12T05:24:58;25.73;;;16.23;;
37349;SDS011;23231;52.358;4.926;2023-08-12T05:29:58;24.55;;;14.73;;
37349;SDS011;23231;52.358;4.926;2023-08-12T05:34:59;28.73;;;16.10;;
37349;SDS011;23231;52.358;4.926;2023-08-12T05:39:59;20.70;;;13.27;;
37349;SDS011;23231;52.358;4.926;2023-08-12T05:45:00;23.15;;;14.93;;
37349;SDS011;23231;52.358;4.926;2023-08-12T05:50:00;21.48;;;15.27;;
37349;SDS011;23231;52.358;4.926;2023-08-12T05:55:01;32.30;;;17.63;;
37349;SDS011;23231;52.358;4.926;2023-08-12T06:00:01;28.60;;;18.52;;
37349;SDS011;23231;52.358;4.926;2023-08-12T06:05:02;26.83;;;17.08;;
37349;SDS011;23231;52.358;4.926;2023-08-12T06:10:03;26.60;;;17.48;;
37349;SDS011;23231;52.358;4.926;2023-08-12T06:15:04;30.50;;;17.05;;
37349;SDS011;23231;52.358;4.926;2023-08-12T06:20:05;33.17;;;19.55;;
37349;SDS011;23231;52.358;4.926;2023-08-12T06:25:06;35.65;;;22.17;;
37349;SDS011;23231;52.358;4.926;2023-08-12T06:30:07;35.78;;;21.08;;
37349;SDS011;23231;52.358;4.926;2023-08-12T06:35:08;42.63;;;24.08;;
37349;SDS011;23231;52.358;4.926;2023-08-12T06:40:08;29.33;;;19.77;;
37349;SDS011;23231;52.358;4.926;2023-08-12T06:45:09;31.17;;;19.00;;
37349;SDS011;23231;52.358;4.926;2023-08-12T06:50:10;35.42;;;22.17;;
37349;SDS011;23231;52.358;4.926;2023-08-12T06:55:10;40.45;;;23.52;;
37349;SDS011;23231;52.358;4.926;2023-08-12T07:00:10;30.73;;;20.50;;
37349;SDS011;23231;52.358;4.926;2023-08-12T07:05:11;28.98;;;17.83;;
37349;SDS011;23231;52.358;4.926;2023-08-12T07:10:12;23.75;;;16.58;;
37349;SDS011;23231;52.358;4.926;2023-08-12T07:15:12;27.88;;;17.40;;
37349;SDS011;23231;52.358;4.926;2023-08-12T07:20:15;22.73;;;14.43;;
37349;SDS011;23231;52.358;4.926;2023-08-12T07:25:16;25.85;;;15.48;;
37349;SDS011;23231;52.358;4.926;2023-08-12T07:30:17;19.42;;;13.18;;
37349;SDS011;23231;52.358;4.926;2023-08-12T07:35:17;23.45;;;13.82;;
37349;SDS011;23231;52.358;4.926;2023-08-12T07:40:17;22.52;;;13.95;;
37349;SDS011;23231;52.358;4.926;2023-08-12T07:45:18;15.10;;;10.45;;
37349;SDS011;23231;52.358;4.926;2023-08-12T07:50:18;16.42;;;10.30;;
37349;SDS011;23231;52.358;4.926;2023-08-12T07:55:19;17.10;;;10.40;;
37349;SDS011;23231;52.358;4.926;2023-08-12T08:00:19;18.38;;;7.28;;
37349;SDS011;23231;52.358;4.926;2023-08-12T08:05:20;8.23;;;4.22;;
37349;SDS011;23231;52.358;4.926;2023-08-12T08:10:20;6.25;;;2.83;;
37349;SDS011;23231;52.358;4.926;2023-08-12T08:15:20;5.70;;;2.47;;
37349;SDS011;23231;52.358;4.926;2023-08-12T08:20:22;6.80;;;2.60;;
37349;SDS011;23231;52.358;4.926;2023-08-12T08:25:23;13.25;;;2.72;;
37349;SDS011;23231;52.358;4.926;2023-08-12T08:30:23;9.90;;;2.60;;
37349;SDS011;23231;52.358;4.926;2023-08-12T08:35:25;8.27;;;2.67;;
37349;SDS011;23231;52.358;4.926;2023-08-12T08:40:26;10.45;;;2.50;;
37349;SDS011;23231;52.358;4.926;2023-08-12T08:45:27;10.57;;;3.08;;
37349;SDS011;23231;52.358;4.926;2023-08-12T08:50:29;10.65;;;3.33;;
37349;SDS011;23231;52.358;4.926;2023-08-12T08:55:31;7.97;;;2.55;;
37349;SDS011;23231;52.358;4.926;2023-08-12T09:00:31;13.95;;;3.78;;
37349;SDS011;23231;52.358;4.926;2023-08-12T09:05:32;12.27;;;2.85;;
37349;SDS011;23231;52.358;4.926;2023-08-12T09:10:34;10.65;;;2.97;;
37349;SDS011;23231;52.358;4.926;2023-08-12T09:15:35;12.02;;;6.28;;
37349;SDS011;23231;52.358;4.926;2023-08-12T09:20:36;13.15;;;2.85;;
37349;SDS011;23231;52.358;4.926;2023-08-12T09:25:42;12.88;;;3.40;;
37349;SDS011;23231;52.358;4.926;2023-08-12T09:30:49;7.15;;;2.70;;
37349;SDS011;23231;52.358;4.926;2023-08-12T09:35:52;9.23;;;2.83;;
37349;SDS011;23231;52.358;4.926;2023-08-12T09:40:53;10.43;;;3.00;;
37349;SDS011;23231;52.358;4.926;2023-08-12T09:45:57;8.73;;;2.72;;
37349;SDS011;23231;52.358;4.926;2023-08-12T09:50:58;9.38;;;2.95;;
37349;SDS011;23231;52.358;4.926;2023-08-12T09:56:18;12.15;;;3.00;;
37349;SDS011;23231;52.358;4.926;2023-08-12T10:01:20;11.55;;;3.70;;
37349;SDS011;23231;52.358;4.926;2023-08-12T10:06:21;9.75;;;3.30;;
37349;SDS011;23231;52.358;4.926;2023-08-12T10:11:22;9.93;;;3.70;;
37349;SDS011;23231;52.358;4.926;2023-08-12T10:16:23;11.98;;;3.28;;
37349;SDS011;23231;52.358;4.926;2023-08-12T10:21:23;8.70;;;2.50;;
37349;SDS011;23231;52.358;4.926;2023-08-12T10:26:24;11.48;;;2.53;;
37349;SDS011;23231;52.358;4.926;2023-08-12T10:31:26;7.43;;;2.20;;
37349;SDS011;23231;52.358;4.926;2023-08-12T10:36:28;7.90;;;2.80;;
37349;SDS011;23231;52.358;4.926;2023-08-12T10:41:29;9.43;;;2.55;;
37349;SDS011;23231;52.358;4.926;2023-08-12T10:46:36;12.95;;;2.83;;
37349;SDS011;23231;52.358;4.926;2023-08-12T11:02:06;10.02;;;2.63;;
37349;SDS011;23231;52.358;4.926;2023-08-12T11:07:18;11.38;;;3.00;;
37349;SDS011;23231;52.358;4.926;2023-08-12T11:12:29;10.05;;;2.85;;
37349;SDS011;23231;52.358;4.926;2023-08-12T11:17:33;10.32;;;2.20;;
37349;SDS011;23231;52.358;4.926;2023-08-12T11:22:36;12.63;;;3.10;;
37349;SDS011;23231;52.358;4.926;2023-08-12T11:27:45;9.63;;;2.53;;
37349;SDS011;23231;52.358;4.926;2023-08-12T11:32:46;10.05;;;2.50;;
37349;SDS011;23231;52.358;4.926;2023-08-12T11:37:51;12.25;;;2.22;;
37349;SDS011;23231;52.358;4.926;2023-08-12T11:42:54;13.65;;;3.13;;
37349;SDS011;23231;52.358;4.926;2023-08-12T11:47:55;11.50;;;2.60;;
37349;SDS011;23231;52.358;4.926;2023-08-12T11:52:55;11.95;;;3.03;;
37349;SDS011;23231;52.358;4.926;2023-08-12T11:57:57;10.38;;;2.20;;
37349;SDS011;23231;52.358;4.926;2023-08-12T12:02:58;11.90;;;2.78;;
37349;SDS011;23231;52.358;4.926;2023-08-12T12:07:59;9.70;;;2.50;;
37349;SDS011;23231;52.358;4.926;2023-08-12T12:13:00;7.95;;;2.10;;
37349;SDS011;23231;52.358;4.926;2023-08-12T12:18:01;13.43;;;2.33;;
37349;SDS011;23231;52.358;4.926;2023-08-12T12:23:05;9.63;;;2.40;;
37349;SDS011;23231;52.358;4.926;2023-08-12T12:28:06;7.80;;;2.10;;
37349;SDS011;23231;52.358;4.926;2023-08-12T12:33:07;9.63;;;2.67;;
37349;SDS011;23231;52.358;4.926;2023-08-12T12:38:07;11.65;;;2.83;;
37349;SDS011;23231;52.358;4.926;2023-08-12T12:43:08;13.60;;;2.75;;
37349;SDS011;23231;52.358;4.926;2023-08-12T12:48:08;11.65;;;3.05;;
37349;SDS011;23231;52.358;4.926;2023-08-12T12:53:08;9.80;;;3.00;;
37349;SDS011;23231;52.358;4.926;2023-08-12T12:58:09;10.38;;;2.40;;
37349;SDS011;23231;52.358;4.926;2023-08-12T13:03:09;11.95;;;3.35;;
37349;SDS011;23231;52.358;4.926;2023-08-12T13:08:10;8.77;;;2.85;;
37349;SDS011;23231;52.358;4.926;2023-08-12T13:13:12;10.93;;;2.28;;
37349;SDS011;23231;52.358;4.926;2023-08-12T13:18:13;10.00;;;2.53;;
37349;SDS011;23231;52.358;4.926;2023-08-12T13:23:14;10.90;;;2.22;;
37349;SDS011;23231;52.358;4.926;2023-08-12T13:28:15;9.02;;;2.30;;
37349;SDS011;23231;52.358;4.926;2023-08-12T13:33:15;11.68;;;2.58;;
37349;SDS011;23231;52.358;4.926;2023-08-12T13:38:16;10.60;;;2.85;;
37349;SDS011;23231;52.358;4.926;2023-08-12T13:43:16;12.35;;;2.75;;
37349;SDS011;23231;52.358;4.926;2023-08-12T13:48:17;12.73;;;2.92;;
37349;SDS011;23231;52.358;4.926;2023-08-12T13:53:17;9.00;;;2.45;;
37349;SDS011;23231;52.358;4.926;2023-08-12T13:58:18;7.65;;;2.28;;
37349;SDS011;23231;52.358;4.926;2023-08-12T14:03:19;9.75;;;2.20;;
37349;SDS011;23231;52.358;4.926;2023-08-12T14:08:19;10.27;;;2.72;;
37349;SDS011;23231;52.358;4.926;2023-08-12T14:13:19;12.27;;;2.65;;
37349;SDS011;23231;52.358;4.926;2023-08-12T14:18:20;11.48;;;2.53;;
37349;SDS011;23231;52.358;4.926;2023-08-12T14:23:20;9.65;;;2.42;;
37349;SDS011;23231;52.358;4.926;2023-08-12T14:28:21;11.40;;;3.00;;
37349;SDS011;23231;52.358;4.926;2023-08-12T14:33:22;9.25;;;2.78;;
37349;SDS011;23231;52.358;4.926;2023-08-12T14:38:24;10.38;;;2.95;;
37349;SDS011;23231;52.358;4.926;2023-08-12T14:43:25;8.65;;;2.45;;
37349;SDS011;23231;52.358;4.926;2023-08-12T14:48:25;9.63;;;2.35;;
37349;SDS011;23231;52.358;4.926;2023-08-12T14:53:26;12.02;;;2.92;;
37349;SDS011;23231;52.358;4.926;2023-08-12T14:58:28;10.73;;;2.75;;
37349;SDS011;23231;52.358;4.926;2023-08-12T15:03:28;9.68;;;2.92;;
37349;SDS011;23231;52.358;4.926;2023-08-12T15:08:30;8.32;;;2.40;;
37349;SDS011;23231;52.358;4.926;2023-08-12T15:13:31;6.95;;;2.08;;
37349;SDS011;23231;52.358;4.926;2023-08-12T15:18:31;9.35;;;2.78;;
37349;SDS011;23231;52.358;4.926;2023-08-12T15:23:32;10.70;;;2.42;;
37349;SDS011;23231;52.358;4.926;2023-08-12T15:28:33;7.95;;;2.28;;
37349;SDS011;23231;52.358;4.926;2023-08-12T15:33:33;8.00;;;2.20;;
37349;SDS011;23231;52.358;4.926;2023-08-12T15:38:34;7.70;;;2.20;;
37349;SDS011;23231;52.358;4.926;2023-08-12T15:43:34;10.35;;;2.35;;
37349;SDS011;23231;52.358;4.926;2023-08-12T15:48:35;10.13;;;2.75;;
37349;SDS011;23231;52.358;4.926;2023-08-12T15:53:35;11.75;;;3.00;;
37349;SDS011;23231;52.358;4.926;2023-08-12T15:58:36;12.23;;;2.88;;
37349;SDS011;23231;52.358;4.926;2023-08-12T16:03:36;14.77;;;3.28;;
37349;SDS011;23231;52.358;4.926;2023-08-12T16:08:37;14.27;;;3.47;;
37349;SDS011;23231;52.358;4.926;2023-08-12T16:13:37;10.65;;;2.65;;
37349;SDS011;23231;52.358;4.926;2023-08-12T16:18:37;10.05;;;2.30;;
37349;SDS011;23231;52.358;4.926;2023-08-12T16:23:38;9.55;;;2.10;;
37349;SDS011;23231;52.358;4.926;2023-08-12T16:28:38;9.65;;;2.42;;
37349;SDS011;23231;52.358;4.926;2023-08-12T16:33:39;11.88;;;2.30;;
37349;SDS011;23231;52.358;4.926;2023-08-12T16:38:39;12.05;;;2.58;;
37349;SDS011;23231;52.358;4.926;2023-08-12T16:43:39;13.18;;;2.90;;
37349;SDS011;23231;52.358;4.926;2023-08-12T16:48:40;10.25;;;2.40;;
37349;SDS011;23231;52.358;4.926;2023-08-12T16:53:40;9.38;;;2.70;;
37349;SDS011;23231;52.358;4.926;2023-08-12T16:58:41;11.00;;;2.70;;
37349;SDS011;23231;52.358;4.926;2023-08-12T17:03:41;10.50;;;2.63;;
37349;SDS011;23231;52.358;4.926;2023-08-12T17:08:41;8.25;;;2.45;;
37349;SDS011;23231;52.358;4.926;2023-08-12T17:13:42;10.05;;;2.25;;
37349;SDS011;23231;52.358;4.926;2023-08-12T17:18:42;8.52;;;2.22;;
37349;SDS011;23231;52.358;4.926;2023-08-12T17:23:43;11.63;;;2.72;;
37349;SDS011;23231;52.358;4.926;2023-08-12T17:28:43;11.90;;;3.13;;
37349;SDS011;23231;52.358;4.926;2023-08-12T17:33:45;12.50;;;2.83;;
37349;SDS011;23231;52.358;4.926;2023-08-12T17:38:45;12.13;;;2.85;;
37349;SDS011;23231;52.358;4.926;2023-08-12T17:43:46;10.18;;;2.92;;
37349;SDS011;23231;52.358;4.926;2023-08-12T17:48:46;14.38;;;2.95;;
37349;SDS011;23231;52.358;4.926;2023-08-12T17:53:47;12.23;;;2.88;;
37349;SDS011;23231;52.358;4.926;2023-08-12T17:58:47;16.77;;;3.75;;
37349;SDS011;23231;52.358;4.926;2023-08-12T18:03:49;8.20;;;2.92;;
37349;SDS011;23231;52.358;4.926;2023-08-12T18:08:49;24.48;;;4.15;;
37349;SDS011;23231;52.358;4.926;2023-08-12T18:13:49;11.10;;;3.35;;
37349;SDS011;23231;52.358;4.926;2023-08-12T18:18:50;16.23;;;4.07;;
37349;SDS011;23231;52.358;4.926;2023-08-12T18:23:50;11.15;;;3.30;;
37349;SDS011;23231;52.358;4.926;2023-08-12T18:28:51;10.80;;;3.50;;
37349;SDS011;23231;52.358;4.926;2023-08-12T18:33:51;15.95;;;3.00;;
37349;SDS011;23231;52.358;4.926;2023-08-12T18:38:52;10.23;;;3.20;;
37349;SDS011;23231;52.358;4.926;2023-08-12T18:43:52;8.70;;;2.63;;
37349;SDS011;23231;52.358;4.926;2023-08-12T18:48:52;11.43;;;2.67;;
37349;SDS011;23231;52.358;4.926;2023-08-12T18:53:53;10.35;;;2.70;;
37349;SDS011;23231;52.358;4.926;2023-08-12T18:58:53;8.80;;;2.55;;
37349;SDS011;23231;52.358;4.926;2023-08-12T19:03:54;12.45;;;2.78;;
37349;SDS011;23231;52.358;4.926;2023-08-12T19:08:54;14.07;;;3.90;;
37349;SDS011;23231;52.358;4.926;2023-08-12T19:13:55;9.55;;;2.58;;
37349;SDS011;23231;52.358;4.926;2023-08-12T19:18:55;12.48;;;3.00;;
37349;SDS011;23231;52.358;4.926;2023-08-12T19:23:55;13.57;;;2.50;;
37349;SDS011;23231;52.358;4.926;2023-08-12T19:28:56;14.75;;;2.70;;
37349;SDS011;23231;52.358;4.926;2023-08-12T19:33:59;14.38;;;2.60;;
37349;SDS011;23231;52.358;4.926;2023-08-12T19:38:59;11.10;;;2.85;;
37349;SDS011;23231;52.358;4.926;2023-08-12T19:44:00;16.85;;;2.63;;
37349;SDS011;23231;52.358;4.926;2023-08-12T19:49:00;10.38;;;2.60;;
37349;SDS011;23231;52.358;4.926;2023-08-12T19:54:00;11.45;;;3.00;;
37349;SDS011;23231;52.358;4.926;2023-08-12T19:59:01;16.35;;;2.50;;
37349;SDS011;23231;52.358;4.926;2023-08-12T20:04:01;13.75;;;3.25;;
37349;SDS011;23231;52.358;4.926;2023-08-12T20:09:02;14.13;;;2.90;;
37349;SDS011;23231;52.358;4.926;2023-08-12T20:14:03;11.50;;;2.55;;
37349;SDS011;23231;52.358;4.926;2023-08-12T20:19:04;11.82;;;2.30;;
37349;SDS011;23231;52.358;4.926;2023-08-12T20:24:05;9.75;;;2.38;;
37349;SDS011;23231;52.358;4.926;2023-08-12T20:29:06;10.73;;;2.35;;
37349;SDS011;23231;52.358;4.926;2023-08-12T20:34:07;8.23;;;2.00;;
37349;SDS011;23231;52.358;4.926;2023-08-12T20:39:07;8.95;;;2.42;;
37349;SDS011;23231;52.358;4.926;2023-08-12T20:44:08;9.88;;;2.60;;
37349;SDS011;23231;52.358;4.926;2023-08-12T20:49:08;9.85;;;2.35;;
37349;SDS011;23231;52.358;4.926;2023-08-12T20:54:09;8.77;;;2.35;;
37349;SDS011;23231;52.358;4.926;2023-08-12T20:59:10;11.68;;;2.42;;
37349;SDS011;23231;52.358;4.926;2023-08-12T21:04:10;9.48;;;1.85;;
37349;SDS011;23231;52.358;4.926;2023-08-12T21:09:11;6.38;;;1.90;;
37349;SDS011;23231;52.358;4.926;2023-08-12T21:14:11;13.48;;;2.83;;
37349;SDS011;23231;52.358;4.926;2023-08-12T21:19:12;10.88;;;2.50;;
37349;SDS011;23231;52.358;4.926;2023-08-12T21:24:13;10.05;;;2.60;;
37349;SDS011;23231;52.358;4.926;2023-08-12T21:29:13;12.95;;;2.88;;
37349;SDS011;23231;52.358;4.926;2023-08-12T21:34:14;11.27;;;3.13;;
37349;SDS011;23231;52.358;4.926;2023-08-12T21:39:14;10.65;;;2.90;;
37349;SDS011;23231;52.358;4.926;2023-08-12T21:44:15;12.57;;;2.97;;
37349;SDS011;23231;52.358;4.926;2023-08-12T21:49:15;15.90;;;2.85;;
37349;SDS011;23231;52.358;4.926;2023-08-12T21:54:16;14.95;;;3.13;;
37349;SDS011;23231;52.358;4.926;2023-08-12T21:59:16;11.00;;;2.75;;
37349;SDS011;23231;52.358;4.926;2023-08-12T22:04:19;16.35;;;2.70;;
37349;SDS011;23231;52.358;4.926;2023-08-12T22:09:19;12.05;;;2.83;;
37349;SDS011;23231;52.358;4.926;2023-08-12T22:14:20;16.77;;;3.08;;
37349;SDS011;23231;52.358;4.926;2023-08-12T22:19:20;11.65;;;3.08;;
37349;SDS011;23231;52.358;4.926;2023-08-12T22:24:21;11.68;;;2.92;;
37349;SDS011;23231;52.358;4.926;2023-08-12T22:29:21;14.18;;;2.90;;
37349;SDS011;23231;52.358;4.926;2023-08-12T22:34:21;13.75;;;2.60;;
37349;SDS011;23231;52.358;4.926;2023-08-12T22:39:22;16.27;;;3.58;;
37349;SDS011;23231;52.358;4.926;2023-08-12T22:44:22;15.70;;;3.47;;
37349;SDS011;23231;52.358;4.926;2023-08-12T22:49:23;16.88;;;3.50;;
37349;SDS011;23231;52.358;4.926;2023-08-12T22:54:23;13.80;;;3.97;;
37349;SDS011;23231;52.358;4.926;2023-08-12T22:59:24;17.02;;;4.38;;
37349;SDS011;23231;52.358;4.926;2023-08-12T23:04:25;13.57;;;2.95;;
37349;SDS011;23231;52.358;4.926;2023-08-12T23:09:25;13.07;;;3.17;;
37349;SDS011;23231;52.358;4.926;2023-08-12T23:14:25;13.50;;;3.58;;
37349;SDS011;23231;52.358;4.926;2023-08-12T23:19:26;14.60;;;3.22;;
37349;SDS011;23231;52.358;4.926;2023-08-12T23:24:26;14.75;;;3.22;;
37349;SDS011;23231;52.358;4.926;2023-08-12T23:29:27;18.05;;;3.30;;
37349;SDS011;23231;52.358;4.926;2023-08-12T23:34:27;10.68;;;2.92;;
37349;SDS011;23231;52.358;4.926;2023-08-12T23:39:28;15.70;;;3.30;;
37349;SDS011;23231;52.358;4.926;2023-08-12T23:44:30;14.77;;;3.03;;
37349;SDS011;23231;52.358;4.926;2023-08-12T23:49:30;16.10;;;3.40;;
37349;SDS011;23231;52.358;4.926;2023-08-12T23:54:32;12.85;;;3.08;;
37349;SDS011;23231;52.358;4.926;2023-08-12T23:59:32;19.38;;;2.97;;
